KICL/ICL METAR and TAF weather

Enter ICAO airport designator
Station Type Date Time Source
KICL METAR 2021/09/24 05:55 UTC NOAA

KICL 240555Z AUTO 20004KT 10SM CLR 12/10 A2997 RMK AO2


Station Type Date Time Source
KICL Decoded METAR 2021/09/24 05:55 UTC NOAA

Clarinda, IA, United States (KICL) 40-43N 095-02W
Sep 24, 2021 - 01:55 AM EDT / 2021.09.24 0555 UTC
Wind: from the SSW (200 degrees) at 5 MPH (4 KT):0
Visibility: 10 mile(s):0
Sky conditions: clear
Temperature: 53 F (12 C)
Dew Point: 50 F (10 C)
Relative Humidity: 87%
Pressure (altimeter): 29.97 in. Hg (1014 hPa)
ob: KICL 240555Z AUTO 20004KT 10SM CLR 12/10 A2997 RMK AO2
cycle: 6

Station Type Date Time Source
KICL TAF UTC NOAA

Error!

Example: see airport list